Time;durP1;ratioP1;P1;durP2;ratioP2;P2;SDS_P1;SDS_P2;PMS_P1;PMS_P2;Temp;Humidity;BMP_temperature;BMP_pressure;BME280_temperature;BME280_humidity;BME280_pressure;Samples;Min_cycle;Max_cycle;Signal;HPM_P1;HPM_P2
2021/06/14 00:01:01;;;;;;;5.10;2.50;;;16.00;1.00;;;;;;5010592;28;20057;-77
2021/06/14 00:03:26;;;;;;;2.22;2.03;;;16.00;1.00;;;;;;5012135;28;20029;-77
2021/06/14 00:05:52;;;;;;;2.97;2.30;;;15.90;30.20;;;;;;5010594;28;20030;-77
2021/06/14 00:08:19;;;;;;;5.50;2.22;;;15.80;99.90;;;;;;5010980;28;20083;-76
2021/06/14 00:10:48;;;;;;;3.53;3.03;;;15.70;99.90;;;;;;5012332;28;20026;-77
2021/06/14 00:13:14;;;;;;;5.57;2.35;;;15.80;99.90;;;;;;5013034;28;20165;-78
2021/06/14 00:15:41;;;;;;;3.53;2.20;;;15.70;55.70;;;;;;5034657;28;20026;-76
2021/06/14 00:18:08;;;;;;;4.53;2.92;;;15.60;99.90;;;;;;5040622;28;20010;-78
2021/06/14 00:20:34;;;;;;;4.47;2.70;;;15.60;99.90;;;;;;5039879;28;20021;-77
2021/06/14 00:23:00;;;;;;;4.15;2.22;;;15.60;1.00;;;;;;5040036;28;20102;-76
2021/06/14 00:25:30;;;;;;;5.78;2.53;;;15.60;1.00;;;;;;5040540;28;20013;-76
2021/06/14 00:27:56;;;;;;;4.85;2.63;;;15.70;1.00;;;;;;5039807;28;20017;-76
2021/06/14 00:30:51;;;;;;;2.92;2.53;;;15.70;98.90;;;;;;5033020;28;20294;-77
2021/06/14 00:33:17;;;;;;;4.75;2.50;;;15.60;99.90;;;;;;5013307;28;20041;-78
2021/06/14 00:35:45;;;;;;;3.35;2.70;;;15.60;99.90;;;;;;5017936;28;20030;-78
2021/06/14 00:38:11;;;;;;;5.50;2.55;;;15.60;1.00;;;;;;5017524;28;20434;-77
2021/06/14 00:40:37;;;;;;;3.55;2.88;;;15.60;70.30;;;;;;5015876;28;20018;-77
2021/06/14 00:43:04;;;;;;;4.28;2.70;;;15.50;1.00;;;;;;5000296;28;20117;-76
2021/06/14 00:45:31;;;;;;;5.45;3.35;;;15.50;17.70;;;;;;4995290;28;20125;-76
2021/06/14 00:47:58;;;;;;;3.15;2.30;;;15.40;99.90;;;;;;4995124;28;20498;-77
2021/06/14 00:50:39;;;;;;;7.05;2.50;;;15.40;1.00;;;;;;4996157;28;20026;-77
2021/06/14 00:53:13;;;;;;;2.85;2.30;;;15.50;99.90;;;;;;5016175;28;20030;-77
2021/06/14 00:55:39;;;;;;;4.60;2.35;;;15.40;99.90;;;;;;5019098;28;20026;-77
2021/06/14 00:58:05;;;;;;;4.18;2.40;;;15.40;99.90;;;;;;5035115;28;20033;-77
2021/06/14 01:00:31;;;;;;;3.80;2.55;;;15.30;1.00;;;;;;5040015;28;20037;-77
2021/06/14 01:02:57;;;;;;;4.78;2.50;;;15.20;99.90;;;;;;5031631;28;20041;-77
2021/06/14 01:05:23;;;;;;;3.28;2.55;;;15.20;99.90;;;;;;5016497;28;20018;-76
2021/06/14 01:07:49;;;;;;;3.17;2.42;;;15.20;1.00;;;;;;5014118;28;20025;-77
2021/06/14 01:10:16;;;;;;;5.70;3.08;;;15.10;99.90;;;;;;5015513;28;20037;-77
2021/06/14 01:13:30;;;;;;;3.40;2.42;;;15.10;99.90;;;;;;5015163;28;20030;-76
2021/06/14 01:16:28;;;;;;;4.07;2.58;;;15.10;99.90;;;;;;4993328;28;20027;-77
2021/06/14 01:18:53;;;;;;;3.55;2.80;;;15.00;99.90;;;;;;5014599;28;20394;-76
2021/06/14 01:21:27;;;;;;;3.53;2.65;;;14.90;1.00;;;;;;4996502;28;20039;-76
2021/06/14 01:24:10;;;;;;;4.60;2.88;;;14.90;99.90;;;;;;4993230;28;20114;-77
2021/06/14 01:26:43;;;;;;;6.72;3.00;;;14.90;99.90;;;;;;4994022;28;20019;-77
2021/06/14 01:29:11;;;;;;;3.45;2.50;;;14.90;99.90;;;;;;4995335;28;20390;-78
2021/06/14 01:31:39;;;;;;;4.32;2.85;;;14.90;1.00;;;;;;4995376;28;20018;-78
2021/06/14 01:34:07;;;;;;;3.17;2.70;;;14.90;21.60;;;;;;4994952;28;20026;-77
2021/06/14 01:36:35;;;;;;;5.80;3.00;;;14.80;86.20;;;;;;4993572;28;20030;-78
2021/06/14 01:39:02;;;;;;;4.00;3.17;;;14.70;99.90;;;;;;4994611;28;20018;-78
2021/06/14 01:41:29;;;;;;;3.03;2.72;;;14.70;99.90;;;;;;5002757;28;20429;-78
2021/06/14 01:43:56;;;;;;;3.22;2.85;;;14.80;99.90;;;;;;5010852;28;20156;-77
2021/06/14 01:46:24;;;;;;;3.38;2.78;;;14.80;99.90;;;;;;5014449;28;20037;-78
2021/06/14 01:48:51;;;;;;;5.05;3.20;;;14.80;1.00;;;;;;5014419;28;20030;-76
2021/06/14 01:51:21;;;;;;;5.68;2.88;;;14.80;99.90;;;;;;5014566;28;20109;-76
2021/06/14 01:54:02;;;;;;;2.55;2.25;;;14.80;1.00;;;;;;5014179;28;20512;-77
2021/06/14 01:56:32;;;;;;;;;;;14.70;99.90;;;;;;5013471;28;20026;-78
2021/06/14 01:59:00;;;;;;;4.00;2.40;;;14.70;43.90;;;;;;5014375;28;19905;-78
2021/06/14 02:01:28;;;;;;;3.47;2.90;;;14.70;99.90;;;;;;5014547;28;20022;-78
2021/06/14 02:03:55;;;;;;;4.78;3.13;;;14.60;99.90;;;;;;5014025;28;20029;-79
2021/06/14 02:06:22;;;;;;;8.40;3.22;;;14.60;99.90;;;;;;5014300;28;20045;-77
2021/06/14 02:08:48;;;;;;;6.65;2.83;;;14.60;99.90;;;;;;5014224;28;20112;-78
2021/06/14 02:11:14;;;;;;;3.38;2.60;;;14.50;99.90;;;;;;5012802;28;20129;-77
2021/06/14 02:13:40;;;;;;;5.60;3.15;;;14.40;99.90;;;;;;5013164;28;20026;-77
2021/06/14 02:16:07;;;;;;;3.53;2.85;;;14.50;99.90;;;;;;5012571;28;20050;-77
2021/06/14 02:18:33;;;;;;;4.75;3.40;;;14.50;99.90;;;;;;5013991;28;20018;-78
2021/06/14 02:20:58;;;;;;;3.60;3.10;;;14.50;99.90;;;;;;5012624;28;20516;-78
2021/06/14 02:23:24;;;;;;;3.80;2.85;;;14.60;99.90;;;;;;5013490;28;20026;-79
2021/06/14 02:25:49;;;;;;;4.45;2.85;;;14.50;99.90;;;;;;5013362;28;20055;-77
2021/06/14 02:28:15;;;;;;;6.30;3.17;;;14.40;99.90;;;;;;5014078;28;20026;-77
2021/06/14 02:30:41;;;;;;;4.07;2.85;;;14.30;99.90;;;;;;5012504;28;20029;-77
2021/06/14 02:33:06;;;;;;;4.50;2.30;;;14.20;1.00;;;;;;5013991;28;20025;-77
2021/06/14 02:35:32;;;;;;;4.15;2.80;;;14.20;1.00;;;;;;5012601;28;20037;-77
2021/06/14 02:38:02;;;;;;;4.03;3.00;;;14.20;1.00;;;;;;5013317;28;20525;-77
2021/06/14 02:40:30;;;;;;;4.03;3.20;;;14.30;1.00;;;;;;5013379;28;20076;-78
2021/06/14 02:43:03;;;;;;;9.35;3.63;;;14.30;1.00;;;;;;5005367;28;20381;-76
2021/06/14 02:45:30;;;;;;;5.60;2.53;;;14.20;1.00;;;;;;5012482;28;20030;-78
2021/06/14 02:47:56;;;;;;;3.55;3.25;;;14.20;1.00;;;;;;5012174;28;20486;-77
2021/06/14 02:50:23;;;;;;;4.55;2.33;;;14.10;1.00;;;;;;5012383;28;20057;-77
2021/06/14 02:52:51;;;;;;;3.72;2.70;;;14.00;1.00;;;;;;5011920;28;20033;-78
2021/06/14 02:55:22;;;;;;;5.55;2.85;;;14.00;1.00;;;;;;5013198;28;20026;-78
2021/06/14 02:57:55;;;;;;;4.38;2.65;;;14.10;1.00;;;;;;5013012;28;20489;-78
2021/06/14 03:00:23;;;;;;;2.60;2.40;;;14.30;1.00;;;;;;5013450;28;20056;-78
2021/06/14 03:02:50;;;;;;;6.60;2.53;;;14.20;1.00;;;;;;5013110;28;20026;-78
2021/06/14 03:05:17;;;;;;;3.70;2.67;;;14.10;1.00;;;;;;5012518;28;20052;-76
2021/06/14 03:07:44;;;;;;;4.78;2.85;;;14.10;1.00;;;;;;5012090;28;20030;-78
2021/06/14 03:10:11;;;;;;;8.95;3.80;;;14.10;1.00;;;;;;5013438;28;20490;-78
2021/06/14 03:12:37;;;;;;;4.03;3.10;;;14.10;1.00;;;;;;5012672;28;20063;-76
2021/06/14 03:15:05;;;;;;;8.48;3.13;;;14.00;8.50;;;;;;5012549;28;20111;-77
2021/06/14 03:17:32;;;;;;;11.35;4.38;;;14.00;56.70;;;;;;5012811;28;20090;-78
2021/06/14 03:19:59;;;;;;;8.38;4.78;;;14.00;51.30;;;;;;5013143;28;20073;-77
2021/06/14 03:22:26;;;;;;;5.53;3.17;;;14.00;63.30;;;;;;5012869;28;20034;-78
2021/06/14 03:24:53;;;;;;;4.32;3.28;;;13.90;52.00;;;;;;5012913;28;20033;-78
2021/06/14 03:27:19;;;;;;;5.43;3.28;;;13.90;31.20;;;;;;5012389;28;20037;-78
2021/06/14 03:29:48;;;;;;;4.22;3.03;;;13.90;46.90;;;;;;4995682;28;20045;-79
2021/06/14 03:32:14;;;;;;;5.63;3.10;;;13.90;49.20;;;;;;4991620;28;20683;-77
2021/06/14 03:34:41;;;;;;;3.75;3.20;;;14.00;1.00;;;;;;4991635;28;20034;-77
2021/06/14 03:37:07;;;;;;;4.95;3.30;;;14.20;1.00;;;;;;4991517;28;20028;-80
2021/06/14 03:39:33;;;;;;;5.07;2.95;;;14.30;1.00;;;;;;4992645;28;20027;-78
2021/06/14 03:41:59;;;;;;;5.55;3.15;;;14.50;1.00;;;;;;5000481;28;20023;-77
2021/06/14 03:44:25;;;;;;;2.90;2.58;;;14.60;1.00;;;;;;5011970;28;20075;-78
2021/06/14 03:46:51;;;;;;;5.50;3.17;;;14.70;99.90;;;;;;5011972;28;20414;-77
2021/06/14 03:49:16;;;;;;;5.93;3.20;;;15.10;99.90;;;;;;5011245;28;20034;-78
2021/06/14 03:51:42;;;;;;;5.53;3.10;;;15.30;1.00;;;;;;5012900;28;20022;-78
2021/06/14 03:54:08;;;;;;;7.60;3.75;;;15.20;1.00;;;;;;5011048;28;20026;-78
2021/06/14 03:56:35;;;;;;;7.80;2.97;;;15.30;1.00;;;;;;5012202;28;20018;-77
2021/06/14 03:59:02;;;;;;;6.45;3.47;;;15.40;1.00;;;;;;5011076;28;20033;-78
2021/06/14 04:01:28;;;;;;;5.65;2.92;;;15.50;1.00;;;;;;5012408;28;20359;-79
2021/06/14 04:06:27;;;;;;;5.93;3.05;;;15.40;1.00;;;;;;5012137;28;20030;-78
2021/06/14 04:08:53;;;;;;;7.43;3.78;;;15.50;99.90;;;;;;5012003;28;20164;-77
2021/06/14 04:11:18;;;;;;;6.43;3.40;;;15.60;99.90;;;;;;5010904;28;20426;-77
2021/06/14 04:13:49;;;;;;;9.05;3.50;;;15.80;99.90;;;;;;5012268;28;20053;-77
2021/06/14 04:16:15;;;;;;;7.85;3.50;;;15.80;99.90;;;;;;5010811;28;20022;-78
2021/06/14 04:18:41;;;;;;;8.80;4.85;;;16.00;27.00;;;;;;5010669;28;20080;-78
2021/06/14 04:21:06;;;;;;;8.48;3.50;;;16.20;1.00;;;;;;5010661;28;20026;-78
2021/06/14 04:23:32;;;;;;;5.05;3.17;;;16.50;99.90;;;;;;5010630;28;20026;-77
2021/06/14 04:25:58;;;;;;;5.90;3.40;;;16.80;1.00;;;;;;5011712;28;20053;-77
2021/06/14 04:28:23;;;;;;;6.15;4.00;;;16.80;1.00;;;;;;5010901;28;20041;-77
2021/06/14 04:30:49;;;;;;;4.70;3.40;;;16.50;99.90;;;;;;5011867;28;20030;-77
2021/06/14 04:33:14;;;;;;;3.88;3.20;;;16.50;1.00;;;;;;5010513;28;20033;-77
2021/06/14 04:35:40;;;;;;;6.07;3.85;;;16.50;1.00;;;;;;5068684;22;20154;-75
2021/06/14 04:38:05;;;;;;;5.20;3.58;;;16.60;99.90;;;;;;5052213;28;20476;-76
2021/06/14 04:40:31;;;;;;;5.55;3.40;;;16.80;99.90;;;;;;5047695;28;20017;-76
2021/06/14 04:42:57;;;;;;;4.72;3.40;;;17.10;1.00;;;;;;5048559;28;20021;-76
2021/06/14 04:45:23;;;;;;;6.30;3.90;;;17.30;99.90;;;;;;5038619;28;20535;-75
2021/06/14 04:47:49;;;;;;;6.90;3.75;;;17.70;51.30;;;;;;5031444;28;20036;-77
2021/06/14 04:50:15;;;;;;;8.20;3.90;;;17.90;1.00;;;;;;5033102;28;20469;-77
2021/06/14 04:52:41;;;;;;;4.93;3.70;;;18.30;1.00;;;;;;5033685;28;20033;-76
2021/06/14 04:55:07;;;;;;;5.18;2.88;;;19.30;99.90;;;;;;5042560;28;20024;-73
2021/06/14 04:57:33;;;;;;;4.90;3.10;;;19.80;1.00;;;;;;5043839;28;20030;-76
2021/06/14 04:59:59;;;;;;;6.53;2.85;;;20.40;1.00;;;;;;5036012;28;20028;-76
2021/06/14 05:02:24;;;;;;;6.28;3.47;;;20.30;99.90;;;;;;5038680;28;20032;-77
2021/06/14 05:04:50;;;;;;;5.22;3.20;;;20.40;99.90;;;;;;5039804;28;20108;-77
2021/06/14 05:07:16;;;;;;;5.00;3.15;;;20.20;99.90;;;;;;5038087;28;20159;-77
2021/06/14 05:09:41;;;;;;;7.65;3.08;;;20.40;99.90;;;;;;5039445;28;20028;-77
2021/06/14 05:12:07;;;;;;;5.78;2.95;;;21.00;99.90;;;;;;5037969;28;20029;-78
2021/06/14 05:14:33;;;;;;;3.08;2.78;;;20.90;1.00;;;;;;5040161;28;20037;-77
2021/06/14 05:16:59;;;;;;;6.70;3.08;;;21.90;99.90;;;;;;5040161;28;20033;-77
2021/06/14 05:19:25;;;;;;;6.40;3.05;;;22.60;99.90;;;;;;5036746;28;20127;-76
2021/06/14 05:21:50;;;;;;;9.73;3.40;;;24.10;99.90;;;;;;5039531;28;20134;-77
2021/06/14 05:24:16;;;;;;;9.13;3.10;;;24.20;99.90;;;;;;5039808;28;20038;-79
2021/06/14 05:26:41;;;;;;;4.97;3.15;;;24.60;99.90;;;;;;5035815;28;20040;-77
2021/06/14 05:29:07;;;;;;;8.45;3.33;;;24.50;99.90;;;;;;5039854;28;20087;-76
2021/06/14 05:31:33;;;;;;;4.10;2.88;;;25.40;99.90;;;;;;5039156;28;20473;-76
2021/06/14 05:33:58;;;;;;;4.78;3.15;;;24.50;99.90;;;;;;5041405;28;20038;-77
2021/06/14 05:36:24;;;;;;;6.32;3.15;;;24.30;99.90;;;;;;5024363;28;20025;-77
2021/06/14 05:38:49;;;;;;;5.03;3.33;;;25.00;99.90;;;;;;5042214;28;20022;-77
2021/06/14 05:41:15;;;;;;;8.02;3.00;;;24.70;99.90;;;;;;5041119;28;20025;-77
2021/06/14 05:43:41;;;;;;;5.85;3.35;;;24.20;99.90;;;;;;5039527;28;20033;-76
2021/06/14 05:46:06;;;;;;;5.80;3.00;;;24.50;99.90;;;;;;5042010;28;20056;-77
2021/06/14 05:48:32;;;;;;;6.22;3.17;;;23.70;99.90;;;;;;5042868;28;20064;-77
2021/06/14 05:50:57;;;;;;;4.57;3.30;;;23.70;99.90;;;;;;5041737;28;20041;-76
2021/06/14 05:53:24;;;;;;;5.75;3.05;;;23.20;99.90;;;;;;5040162;28;20036;-77
2021/06/14 05:55:50;;;;;;;6.82;3.33;;;22.30;99.90;;;;;;5038854;28;20045;-76
2021/06/14 05:58:16;;;;;;;6.78;3.63;;;22.30;99.90;;;;;;5036098;28;20049;-77
2021/06/14 06:00:42;;;;;;;5.75;3.53;;;23.60;99.90;;;;;;5036442;28;20447;-76
2021/06/14 06:03:07;;;;;;;6.10;3.03;;;24.50;99.90;;;;;;5040522;28;20061;-77
2021/06/14 06:05:33;;;;;;;14.15;3.67;;;24.50;99.20;;;;;;5041723;28;20026;-77
2021/06/14 06:07:59;;;;;;;4.93;3.38;;;24.20;99.40;;;;;;5041663;28;20048;-77
2021/06/14 06:10:25;;;;;;;9.00;3.53;;;23.90;99.90;;;;;;5042640;28;20032;-76
2021/06/14 06:12:50;;;;;;;9.25;4.15;;;23.10;99.10;;;;;;5043354;28;20032;-77
2021/06/14 06:15:18;;;;;;;6.88;4.25;;;22.80;99.70;;;;;;5040721;28;20029;-75
2021/06/14 06:17:45;;;;;;;6.72;4.20;;;23.10;99.90;;;;;;5042068;28;20138;-78
2021/06/14 06:20:13;;;;;;;11.00;5.75;;;23.00;99.90;;;;;;5040712;28;20041;-77
2021/06/14 06:22:40;;;;;;;7.00;3.92;;;23.00;99.90;;;;;;5040333;28;20061;-77
2021/06/14 06:25:10;;;;;;;7.63;4.10;;;23.40;99.90;;;;;;5051556;28;20028;-74
2021/06/14 06:27:36;;;;;;;7.78;4.68;;;24.00;98.90;;;;;;5053726;28;20075;-75
2021/06/14 06:30:03;;;;;;;12.35;5.05;;;23.70;98.10;;;;;;5054149;28;20030;-76
2021/06/14 06:32:29;;;;;;;9.52;4.55;;;22.60;99.90;;;;;;5047521;28;20030;-75
2021/06/14 06:34:54;;;;;;;10.82;4.68;;;21.50;99.90;;;;;;5050075;28;20136;-75
2021/06/14 06:37:20;;;;;;;8.50;4.47;;;21.60;99.90;;;;;;5052053;28;20037;-77
2021/06/14 06:39:45;;;;;;;36.15;6.25;;;21.30;99.90;;;;;;5040146;28;20033;-75
2021/06/14 06:42:11;;;;;;;28.05;7.85;;;20.70;99.90;;;;;;5033708;28;20028;-76
2021/06/14 06:44:38;;;;;;;14.38;5.45;;;20.50;99.90;;;;;;5036084;28;20057;-75
2021/06/14 06:47:04;;;;;;;11.20;3.65;;;20.30;99.90;;;;;;5033745;28;20057;-76
2021/06/14 06:49:31;;;;;;;13.07;5.57;;;20.40;99.90;;;;;;5034655;28;20029;-76
2021/06/14 06:51:57;;;;;;;11.32;4.43;;;20.80;99.90;;;;;;5037332;28;20067;-77
2021/06/14 06:54:22;;;;;;;8.65;4.88;;;20.70;99.90;;;;;;5039319;28;20029;-77
2021/06/14 06:56:50;;;;;;;6.10;3.38;;;20.70;99.90;;;;;;5040881;28;20029;-76
2021/06/14 06:59:16;;;;;;;13.52;4.85;;;20.70;99.90;;;;;;5045213;28;20018;-76
2021/06/14 07:01:42;;;;;;;9.55;4.13;;;20.60;99.90;;;;;;5043808;28;20040;-77
2021/06/14 07:04:08;;;;;;;11.45;4.38;;;20.80;99.90;;;;;;5043821;28;20022;-76
2021/06/14 07:06:34;;;;;;;6.07;3.50;;;20.80;99.90;;;;;;5040689;28;20440;-73
2021/06/14 07:09:00;;;;;;;13.00;5.00;;;20.90;99.90;;;;;;5038773;28;20032;-74
2021/06/14 07:11:28;;;;;;;6.43;3.50;;;20.60;99.90;;;;;;5038108;28;20129;-74
2021/06/14 07:13:54;;;;;;;4.60;2.50;;;20.70;99.90;;;;;;5033927;28;20083;-74
2021/06/14 07:16:21;;;;;;;8.88;2.80;;;21.00;99.90;;;;;;5033185;28;20018;-72
2021/06/14 07:18:47;;;;;;;6.68;2.95;;;21.00;99.90;;;;;;5039826;28;20032;-73
2021/06/14 07:21:13;;;;;;;4.90;2.53;;;21.20;99.90;;;;;;5039889;28;20065;-74
2021/06/14 07:23:39;;;;;;;7.22;3.70;;;21.30;99.90;;;;;;5035022;28;20024;-73
2021/06/14 07:26:06;;;;;;;25.05;9.25;;;21.20;99.90;;;;;;5031886;28;20504;-73
2021/06/14 07:28:33;;;;;;;6.90;2.25;;;21.20;99.90;;;;;;5032824;28;20539;-73
2021/06/14 07:31:05;;;;;;;40.55;9.70;;;21.40;99.90;;;;;;5033731;28;20456;-74
2021/06/14 07:33:32;;;;;;;6.22;2.22;;;21.60;99.90;;;;;;5034008;28;20045;-74
2021/06/14 07:35:58;;;;;;;2.72;2.00;;;21.60;99.90;;;;;;5034141;28;20508;-73
2021/06/14 07:38:25;;;;;;;8.75;2.65;;;21.70;99.90;;;;;;5033154;28;20029;-73
2021/06/14 07:40:52;;;;;;;4.97;1.95;;;21.70;98.60;;;;;;5033650;28;20021;-72
2021/06/14 07:43:18;;;;;;;2.03;1.63;;;22.10;94.90;;;;;;5033459;28;20504;-73
2021/06/14 07:45:46;;;;;;;4.82;1.98;;;22.10;91.10;;;;;;5032873;28;20040;-74
2021/06/14 07:48:12;;;;;;;23.90;6.82;;;22.10;92.50;;;;;;5033192;28;20025;-74
2021/06/14 07:50:40;;;;;;;4.05;2.17;;;21.90;94.70;;;;;;5033936;28;20036;-74
2021/06/14 07:53:05;;;;;;;3.92;1.55;;;22.10;91.40;;;;;;5032880;28;20025;-74
2021/06/14 07:55:32;;;;;;;23.92;6.22;;;22.30;91.00;;;;;;5033005;28;20536;-74
2021/06/14 07:57:57;;;;;;;9.15;3.30;;;22.20;94.30;;;;;;5032533;28;20025;-74
2021/06/14 08:00:23;;;;;;;10.80;3.30;;;22.20;93.00;;;;;;5033001;28;20083;-75
2021/06/14 08:02:49;;;;;;;6.07;2.10;;;22.20;91.60;;;;;;5032717;28;20022;-74
2021/06/14 08:05:15;;;;;;;11.20;2.72;;;22.30;86.80;;;;;;5032552;28;20370;-74
2021/06/14 08:07:41;;;;;;;6.93;1.77;;;22.60;84.80;;;;;;5032874;28;20026;-73
2021/06/14 08:10:11;;;;;;;6.28;2.95;;;22.70;86.20;;;;;;5034646;28;20440;-74
2021/06/14 08:12:44;;;;;;;4.72;2.00;;;22.80;95.30;;;;;;5032099;28;20445;-73
2021/06/14 08:15:11;;;;;;;5.78;2.10;;;23.10;79.90;;;;;;5047600;28;20034;-70
2021/06/14 08:17:37;;;;;;;3.38;1.90;;;23.10;79.90;;;;;;5043288;28;20029;-72
2021/06/14 08:20:11;;;;;;;8.00;2.15;;;23.10;77.50;;;;;;5033198;28;20163;-75
2021/06/14 08:25:03;;;;;;;6.15;2.40;;;23.20;77.40;;;;;;5034476;28;20026;-73
2021/06/14 08:25:22;;;;;;;5.32;1.58;;;23.20;73.20;;;;;;5003487;28;20034;-74
2021/06/14 08:27:48;;;;;;;6.25;2.10;;;23.10;74.70;;;;;;5015118;28;20053;-74
2021/06/14 08:30:17;;;;;;;3.13;1.80;;;23.50;67.90;;;;;;5015355;28;20034;-74
2021/06/14 08:32:44;;;;;;;3.30;2.47;;;23.40;66.90;;;;;;5015300;28;20049;-74
2021/06/14 08:35:13;;;;;;;4.88;2.55;;;23.60;64.00;;;;;;5016561;28;20060;-72
2021/06/14 08:37:40;;;;;;;6.47;2.50;;;23.60;62.40;;;;;;5030262;28;20408;-73
2021/06/14 08:40:07;;;;;;;5.43;2.20;;;23.40;67.10;;;;;;5036434;28;20021;-76
2021/06/14 08:42:33;;;;;;;4.45;1.70;;;23.30;64.80;;;;;;5037654;28;20036;-77
2021/06/14 08:44:59;;;;;;;3.50;2.13;;;23.70;62.70;;;;;;5037179;28;20025;-74
2021/06/14 08:47:27;;;;;;;3.65;2.10;;;23.70;61.20;;;;;;5037311;28;20026;-74
2021/06/14 08:49:53;;;;;;;3.67;1.67;;;23.80;59.80;;;;;;5038670;28;20085;-76
2021/06/14 08:52:19;;;;;;;5.50;2.45;;;23.90;59.40;;;;;;5037209;28;20025;-73
2021/06/14 08:54:45;;;;;;;4.60;2.75;;;24.00;58.00;;;;;;5039387;28;20399;-73
2021/06/14 08:57:13;;;;;;;4.90;1.70;;;24.00;56.60;;;;;;5039005;28;20026;-73
2021/06/14 08:59:41;;;;;;;5.30;2.10;;;24.00;56.20;;;;;;5039027;28;20017;-74
2021/06/14 09:02:06;;;;;;;6.55;1.90;;;24.00;57.90;;;;;;5038543;28;20024;-73
2021/06/14 09:04:32;;;;;;;7.95;2.53;;;24.00;51.40;;;;;;5036603;28;20401;-74
2021/06/14 09:06:59;;;;;;;3.95;2.45;;;24.10;51.30;;;;;;5037397;28;20370;-74
2021/06/14 09:09:29;;;;;;;2.75;1.80;;;24.00;49.00;;;;;;5043002;28;20037;-74
2021/06/14 09:11:55;;;;;;;3.35;1.83;;;24.00;49.80;;;;;;5036551;28;20075;-76
2021/06/14 09:14:26;;;;;;;5.95;2.47;;;24.20;50.00;;;;;;5035999;28;20021;-73
2021/06/14 09:16:54;;;;;;;5.97;2.38;;;24.40;49.60;;;;;;5035673;28;20028;-74
2021/06/14 09:19:40;;;;;;;5.18;2.10;;;24.50;45.20;;;;;;5037996;28;20033;-77
2021/06/14 09:22:13;;;;;;;9.68;2.55;;;24.30;46.00;;;;;;5040196;28;20063;-75
2021/06/14 09:24:39;;;;;;;4.05;2.00;;;24.30;48.00;;;;;;5034784;28;20457;-74
2021/06/14 09:27:05;;;;;;;4.60;1.98;;;24.40;44.30;;;;;;5037473;28;20028;-74
2021/06/14 09:29:30;;;;;;;3.15;1.65;;;24.20;42.90;;;;;;5038070;28;20021;-76
2021/06/14 09:31:59;;;;;;;4.45;1.85;;;24.10;42.00;;;;;;5036717;28;20532;-75
2021/06/14 09:34:39;;;;;;;3.63;1.60;;;23.90;40.80;;;;;;5036138;28;20108;-75
2021/06/14 09:37:09;;;;;;;3.95;1.70;;;24.50;40.20;;;;;;5036498;28;20021;-74
2021/06/14 09:39:40;;;;;;;2.70;1.60;;;24.60;39.40;;;;;;5035839;28;20381;-75
2021/06/14 09:42:39;;;;;;;6.15;1.95;;;24.60;34.40;;;;;;5038465;28;20017;-76
2021/06/14 09:45:07;;;;;;;3.92;1.83;;;24.60;34.80;;;;;;5021800;28;20034;-74
2021/06/14 09:47:32;;;;;;;3.83;1.75;;;24.80;34.00;;;;;;5038238;28;20026;-74
2021/06/14 09:50:08;;;;;;;3.42;2.17;;;24.70;30.70;;;;;;5041192;28;20036;-76
2021/06/14 09:52:33;;;;;;;3.65;1.92;;;24.70;31.60;;;;;;5049010;28;20022;-75
2021/06/14 09:55:12;;;;;;;4.22;1.88;;;24.40;32.00;;;;;;5041830;28;20032;-77
2021/06/14 09:57:37;;;;;;;3.35;1.90;;;24.30;32.10;;;;;;5043312;28;20084;-75
2021/06/14 10:00:17;;;;;;;2.47;1.63;;;24.80;32.50;;;;;;5051357;28;20374;-76
2021/06/14 10:02:43;;;;;;;4.50;1.83;;;25.10;29.80;;;;;;5037645;28;20032;-77
2021/06/14 10:05:17;;;;;;;2.10;1.70;;;25.10;29.30;;;;;;5038028;28;20029;-77
2021/06/14 10:07:54;;;;;;;4.80;2.10;;;24.90;28.80;;;;;;5040744;28;20389;-77
2021/06/14 10:10:25;;;;;;;3.42;1.50;;;25.20;30.00;;;;;;5039699;28;20475;-76
2021/06/14 10:12:56;;;;;;;3.08;1.75;;;25.40;25.10;;;;;;5038193;28;20032;-77
2021/06/14 10:15:37;;;;;;;3.20;1.80;;;25.70;24.40;;;;;;5037474;28;20188;-77
2021/06/14 10:18:11;;;;;;;4.72;1.85;;;25.50;21.70;;;;;;5038155;28;20022;-77
2021/06/14 10:20:38;;;;;;;4.57;1.70;;;25.40;21.20;;;;;;5037642;28;20022;-77
2021/06/14 10:23:05;;;;;;;3.25;1.67;;;25.30;20.90;;;;;;5039472;28;20404;-77
2021/06/14 10:25:31;;;;;;;1.55;1.40;;;25.40;19.80;;;;;;5038926;28;20072;-78
2021/06/14 10:27:58;;;;;;;2.45;1.52;;;25.40;24.80;;;;;;5038186;28;20477;-76
2021/06/14 10:30:25;;;;;;;3.53;1.67;;;25.20;17.90;;;;;;5039455;28;20036;-79
2021/06/14 10:32:51;;;;;;;4.57;1.70;;;25.40;19.70;;;;;;5039330;28;20026;-76
2021/06/14 10:35:19;;;;;;;2.53;1.50;;;25.80;17.90;;;;;;5111891;22;20029;-77
2021/06/14 10:37:55;;;;;;;4.05;1.85;;;25.90;17.50;;;;;;5075874;28;20041;-78
2021/06/14 10:40:26;;;;;;;2.13;1.30;;;25.80;17.90;;;;;;5077488;28;20033;-79
2021/06/14 10:42:56;;;;;;;2.20;1.45;;;25.80;17.00;;;;;;5078166;28;20025;-77
2021/06/14 10:45:30;;;;;;;3.07;1.73;;;26.10;14.60;;;;;;5066730;28;20489;-77
2021/06/14 10:47:57;;;;;;;4.28;1.65;;;25.90;16.10;;;;;;5057750;28;20045;-77
2021/06/14 10:50:36;;;;;;;2.33;1.60;;;25.90;17.30;;;;;;5057564;28;20029;-78
2021/06/14 10:53:06;;;;;;;3.83;1.60;;;26.10;16.10;;;;;;5057589;28;20014;-79
2021/06/14 10:55:53;;;;;;;2.60;1.67;;;26.20;14.90;;;;;;5057497;28;20018;-76
2021/06/14 10:58:30;;;;;;;2.25;1.75;;;26.30;13.50;;;;;;5054142;28;20013;-78
2021/06/14 11:01:07;;;;;;;6.70;3.17;;;26.60;10.40;;;;;;5057747;28;20075;-79
2021/06/14 11:04:05;;;;;;;5.10;1.50;;;26.40;9.60;;;;;;5044856;28;20022;-79
2021/06/14 11:06:53;;;;;;;3.53;1.50;;;26.50;8.70;;;;;;5035948;28;20056;-79
2021/06/14 11:09:28;;;;;;;3.17;1.80;;;26.40;7.80;;;;;;5051903;28;20093;-79
2021/06/14 11:11:59;;;;;;;2.30;1.70;;;26.60;7.60;;;;;;5048975;28;20057;-77
2021/06/14 11:14:46;;;;;;;3.85;1.20;;;26.50;7.60;;;;;;5046013;28;20100;-79
2021/06/14 11:17:34;;;;;;;2.85;1.77;;;26.60;8.10;;;;;;5046005;28;20024;-77
2021/06/14 11:20:08;;;;;;;3.17;1.80;;;26.60;7.10;;;;;;5045761;28;20048;-80
2021/06/14 11:22:55;;;;;;;2.90;1.70;;;26.50;7.40;;;;;;5039570;28;20021;-78
2021/06/14 11:25:39;;;;;;;2.63;1.25;;;26.30;6.70;;;;;;5038204;28;20026;-77
2021/06/14 11:28:15;;;;;;;4.22;1.60;;;26.40;5.50;;;;;;5042650;28;20202;-78
2021/06/14 11:30:51;;;;;;;4.00;2.08;;;26.40;5.40;;;;;;5041202;28;20052;-77
2021/06/14 11:33:46;;;;;;;3.05;2.15;;;26.50;4.90;;;;;;5041182;28;20041;-77
2021/06/14 11:36:35;;;;;;;5.07;1.58;;;26.20;4.40;;;;;;5045169;28;20052;-78
2021/06/14 11:39:20;;;;;;;3.15;1.42;;;26.50;5.00;;;;;;5045206;28;20025;-77
2021/06/14 11:41:53;;;;;;;3.83;2.28;;;26.70;4.60;;;;;;5042203;28;20570;-75
2021/06/14 11:44:27;;;;;;;1.90;1.30;;;27.10;2.90;;;;;;5046469;28;20064;-76
2021/06/14 11:47:11;;;;;;;4.13;2.95;;;27.10;1.60;;;;;;5047654;28;20033;-77
2021/06/14 11:49:49;;;;;;;2.95;1.60;;;27.00;1.00;;;;;;5045019;28;20033;-77
2021/06/14 11:52:25;;;;;;;8.02;1.58;;;27.00;1.50;;;;;;5044104;28;20034;-78
2021/06/14 11:54:58;;;;;;;5.43;1.67;;;26.90;1.00;;;;;;5047773;28;20026;-78
2021/06/14 11:57:46;;;;;;;3.85;2.60;;;27.00;1.00;;;;;;5047028;28;20024;-77
2021/06/14 12:00:30;;;;;;;3.85;1.38;;;27.30;1.00;;;;;;5045714;28;20108;-76
2021/06/14 12:03:00;;;;;;;4.80;1.50;;;27.50;1.00;;;;;;5042039;28;20029;-77
2021/06/14 12:05:54;;;;;;;2.47;1.73;;;27.30;1.00;;;;;;5047242;28;20089;-78
2021/06/14 12:08:30;;;;;;;2.53;1.20;;;27.00;1.00;;;;;;5046575;28;20025;-77
2021/06/14 12:11:10;;;;;;;2.47;1.75;;;27.30;1.00;;;;;;5049536;28;20025;-77
2021/06/14 12:13:40;;;;;;;2.85;1.98;;;27.00;1.00;;;;;;5050450;28;20033;-77
2021/06/14 12:16:13;;;;;;;4.05;1.85;;;27.20;1.00;;;;;;5048821;28;20331;-78
2021/06/14 12:18:42;;;;;;;2.90;1.98;;;27.30;1.00;;;;;;5043445;28;20036;-79
2021/06/14 12:21:12;;;;;;;3.67;1.52;;;27.40;1.00;;;;;;5042193;28;20025;-79
2021/06/14 12:23:41;;;;;;;1.92;1.40;;;27.20;1.00;;;;;;5048253;28;20511;-79
2021/06/14 12:26:16;;;;;;;4.90;1.58;;;27.40;1.00;;;;;;5048326;28;20014;-78
2021/06/14 12:28:45;;;;;;;2.65;1.63;;;27.40;1.00;;;;;;5057712;28;20033;-78
2021/06/14 12:31:13;;;;;;;3.95;1.42;;;27.40;1.00;;;;;;5059171;28;20025;-78
2021/06/14 12:33:43;;;;;;;11.85;6.50;;;27.40;1.00;;;;;;5058513;28;20048;-77
2021/06/14 12:36:21;;;;;;;15.43;7.27;;;27.60;1.00;;;;;;5052395;28;20116;-78
2021/06/14 12:38:53;;;;;;;2.53;1.38;;;27.80;1.00;;;;;;5045161;28;20068;-77
2021/06/14 12:41:25;;;;;;;1.65;1.42;;;27.80;1.00;;;;;;5043990;28;20029;-78
2021/06/14 12:44:00;;;;;;;2.03;1.02;;;28.10;1.00;;;;;;5040931;28;20025;-79
2021/06/14 12:46:36;;;;;;;2.88;1.10;;;28.20;1.00;;;;;;5041879;28;20488;-77
2021/06/14 12:49:03;;;;;;;1.88;1.30;;;28.20;1.00;;;;;;5042118;28;20026;-80
2021/06/14 12:51:38;;;;;;;2.25;1.30;;;28.00;1.00;;;;;;5040783;28;20029;-77
2021/06/14 12:54:07;;;;;;;4.60;1.15;;;27.80;1.00;;;;;;5042257;28;20030;-77
2021/06/14 12:56:37;;;;;;;3.15;1.13;;;27.70;1.00;;;;;;5053084;28;20018;-78
2021/06/14 12:59:06;;;;;;;1.85;1.23;;;27.70;1.00;;;;;;5059333;28;20030;-77
2021/06/14 13:01:39;;;;;;;6.13;3.28;;;27.30;1.00;;;;;;5058431;28;20021;-77
2021/06/14 13:04:13;;;;;;;3.72;1.75;;;27.50;1.00;;;;;;5057973;28;20006;-77